sensor_id;sensor_type;location;lat;lon;timestamp;P1;durP1;ratioP1;P2;durP2;ratioP2
12363;SDS011;6246;50.826;4.712;2024-03-02T00:01:51;63.67;;;51.10;;
12363;SDS011;6246;50.826;4.712;2024-03-02T00:04:17;62.37;;;50.73;;
12363;SDS011;6246;50.826;4.712;2024-03-02T00:06:43;64.10;;;49.80;;
12363;SDS011;6246;50.826;4.712;2024-03-02T00:09:09;60.70;;;48.07;;
12363;SDS011;6246;50.826;4.712;2024-03-02T00:11:37;62.07;;;49.40;;
12363;SDS011;6246;50.826;4.712;2024-03-02T00:14:04;63.17;;;49.03;;
12363;SDS011;6246;50.826;4.712;2024-03-02T00:16:30;60.67;;;47.90;;
12363;SDS011;6246;50.826;4.712;2024-03-02T00:19:00;58.77;;;46.83;;
12363;SDS011;6246;50.826;4.712;2024-03-02T00:21:27;61.27;;;47.77;;
12363;SDS011;6246;50.826;4.712;2024-03-02T00:23:53;56.20;;;44.90;;
12363;SDS011;6246;50.826;4.712;2024-03-02T00:26:19;57.87;;;44.97;;
12363;SDS011;6246;50.826;4.712;2024-03-02T00:28:45;53.70;;;43.70;;
12363;SDS011;6246;50.826;4.712;2024-03-02T00:31:11;55.37;;;43.43;;
12363;SDS011;6246;50.826;4.712;2024-03-02T00:33:47;54.57;;;43.17;;
12363;SDS011;6246;50.826;4.712;2024-03-02T00:36:32;54.67;;;43.57;;
12363;SDS011;6246;50.826;4.712;2024-03-02T00:38:58;53.47;;;41.37;;
12363;SDS011;6246;50.826;4.712;2024-03-02T00:46:19;50.90;;;40.23;;
12363;SDS011;6246;50.826;4.712;2024-03-02T00:48:52;49.63;;;40.40;;
12363;SDS011;6246;50.826;4.712;2024-03-02T00:51:19;47.63;;;38.63;;
12363;SDS011;6246;50.826;4.712;2024-03-02T00:53:46;49.47;;;39.30;;
12363;SDS011;6246;50.826;4.712;2024-03-02T00:56:12;48.67;;;38.30;;
12363;SDS011;6246;50.826;4.712;2024-03-02T00:58:39;44.60;;;35.00;;
12363;SDS011;6246;50.826;4.712;2024-03-02T01:01:05;44.07;;;36.47;;
12363;SDS011;6246;50.826;4.712;2024-03-02T01:03:32;45.70;;;35.70;;
12363;SDS011;6246;50.826;4.712;2024-03-02T01:05:58;45.53;;;35.47;;
12363;SDS011;6246;50.826;4.712;2024-03-02T01:08:24;40.97;;;33.37;;
12363;SDS011;6246;50.826;4.712;2024-03-02T01:10:53;40.37;;;32.97;;
12363;SDS011;6246;50.826;4.712;2024-03-02T01:13:20;39.37;;;32.90;;
12363;SDS011;6246;50.826;4.712;2024-03-02T01:15:47;40.60;;;32.60;;
12363;SDS011;6246;50.826;4.712;2024-03-02T01:18:13;40.83;;;32.53;;
12363;SDS011;6246;50.826;4.712;2024-03-02T01:20:39;38.67;;;30.60;;
12363;SDS011;6246;50.826;4.712;2024-03-02T01:23:05;39.90;;;32.00;;
12363;SDS011;6246;50.826;4.712;2024-03-02T01:25:31;36.10;;;29.33;;
12363;SDS011;6246;50.826;4.712;2024-03-02T01:27:57;36.90;;;29.73;;
12363;SDS011;6246;50.826;4.712;2024-03-02T01:30:23;37.43;;;30.27;;
12363;SDS011;6246;50.826;4.712;2024-03-02T01:32:49;34.70;;;28.47;;
12363;SDS011;6246;50.826;4.712;2024-03-02T01:35:15;33.90;;;28.40;;
12363;SDS011;6246;50.826;4.712;2024-03-02T01:37:41;34.30;;;27.93;;
12363;SDS011;6246;50.826;4.712;2024-03-02T01:40:08;33.33;;;26.07;;
12363;SDS011;6246;50.826;4.712;2024-03-02T01:42:37;32.57;;;26.30;;
12363;SDS011;6246;50.826;4.712;2024-03-02T01:45:04;30.97;;;24.10;;
12363;SDS011;6246;50.826;4.712;2024-03-02T01:47:30;32.23;;;25.90;;
12363;SDS011;6246;50.826;4.712;2024-03-02T01:49:57;32.77;;;25.70;;
12363;SDS011;6246;50.826;4.712;2024-03-02T01:52:23;28.80;;;24.53;;
12363;SDS011;6246;50.826;4.712;2024-03-02T01:54:49;31.53;;;25.40;;
12363;SDS011;6246;50.826;4.712;2024-03-02T01:57:15;29.87;;;23.87;;
12363;SDS011;6246;50.826;4.712;2024-03-02T01:59:41;29.27;;;23.47;;
12363;SDS011;6246;50.826;4.712;2024-03-02T02:02:07;29.87;;;24.50;;
12363;SDS011;6246;50.826;4.712;2024-03-02T02:04:33;30.03;;;23.17;;
12363;SDS011;6246;50.826;4.712;2024-03-02T02:06:59;28.33;;;22.23;;
12363;SDS011;6246;50.826;4.712;2024-03-02T02:09:25;26.83;;;21.83;;
12363;SDS011;6246;50.826;4.712;2024-03-02T02:11:51;26.90;;;21.77;;
12363;SDS011;6246;50.826;4.712;2024-03-02T02:14:18;27.30;;;21.23;;
12363;SDS011;6246;50.826;4.712;2024-03-02T02:16:44;26.63;;;21.70;;
12363;SDS011;6246;50.826;4.712;2024-03-02T02:19:10;27.40;;;21.57;;
12363;SDS011;6246;50.826;4.712;2024-03-02T02:21:36;26.07;;;20.97;;
12363;SDS011;6246;50.826;4.712;2024-03-02T02:24:02;25.83;;;20.80;;
12363;SDS011;6246;50.826;4.712;2024-03-02T02:26:29;24.17;;;19.27;;
12363;SDS011;6246;50.826;4.712;2024-03-02T02:28:55;24.30;;;19.43;;
12363;SDS011;6246;50.826;4.712;2024-03-02T02:31:21;24.70;;;19.67;;
12363;SDS011;6246;50.826;4.712;2024-03-02T02:33:47;27.03;;;19.33;;
12363;SDS011;6246;50.826;4.712;2024-03-02T02:36:13;25.40;;;19.90;;
12363;SDS011;6246;50.826;4.712;2024-03-02T02:38:40;23.87;;;19.07;;
12363;SDS011;6246;50.826;4.712;2024-03-02T02:41:08;21.67;;;17.47;;
12363;SDS011;6246;50.826;4.712;2024-03-02T02:43:34;23.03;;;18.40;;
12363;SDS011;6246;50.826;4.712;2024-03-02T02:46:00;24.20;;;18.33;;
12363;SDS011;6246;50.826;4.712;2024-03-02T02:48:26;23.40;;;18.03;;
12363;SDS011;6246;50.826;4.712;2024-03-02T02:50:52;20.53;;;16.33;;
12363;SDS011;6246;50.826;4.712;2024-03-02T02:53:18;22.60;;;17.37;;
12363;SDS011;6246;50.826;4.712;2024-03-02T02:55:44;21.50;;;15.73;;
12363;SDS011;6246;50.826;4.712;2024-03-02T02:58:10;20.27;;;15.70;;
12363;SDS011;6246;50.826;4.712;2024-03-02T03:00:36;20.10;;;16.03;;
12363;SDS011;6246;50.826;4.712;2024-03-02T03:03:02;18.70;;;14.80;;
12363;SDS011;6246;50.826;4.712;2024-03-02T03:05:29;20.63;;;16.13;;
12363;SDS011;6246;50.826;4.712;2024-03-02T03:07:55;18.03;;;13.80;;
12363;SDS011;6246;50.826;4.712;2024-03-02T03:10:21;20.43;;;15.73;;
12363;SDS011;6246;50.826;4.712;2024-03-02T03:12:48;19.03;;;14.97;;
12363;SDS011;6246;50.826;4.712;2024-03-02T03:15:14;18.13;;;14.07;;
12363;SDS011;6246;50.826;4.712;2024-03-02T03:17:41;18.07;;;14.03;;
12363;SDS011;6246;50.826;4.712;2024-03-02T03:20:07;17.23;;;13.67;;
12363;SDS011;6246;50.826;4.712;2024-03-02T03:22:37;18.00;;;13.57;;
12363;SDS011;6246;50.826;4.712;2024-03-02T03:25:03;16.60;;;12.87;;
12363;SDS011;6246;50.826;4.712;2024-03-02T03:27:29;16.13;;;12.67;;
12363;SDS011;6246;50.826;4.712;2024-03-02T03:29:55;16.20;;;12.23;;
12363;SDS011;6246;50.826;4.712;2024-03-02T03:32:22;16.80;;;12.27;;
12363;SDS011;6246;50.826;4.712;2024-03-02T03:34:48;15.10;;;11.77;;
12363;SDS011;6246;50.826;4.712;2024-03-02T03:37:14;14.30;;;11.30;;
12363;SDS011;6246;50.826;4.712;2024-03-02T03:39:40;16.43;;;11.93;;
12363;SDS011;6246;50.826;4.712;2024-03-02T03:42:06;15.53;;;11.87;;
12363;SDS011;6246;50.826;4.712;2024-03-02T03:44:32;15.93;;;11.73;;
12363;SDS011;6246;50.826;4.712;2024-03-02T03:46:59;13.87;;;10.90;;
12363;SDS011;6246;50.826;4.712;2024-03-02T03:49:27;14.27;;;11.37;;
12363;SDS011;6246;50.826;4.712;2024-03-02T03:51:53;15.30;;;11.27;;
12363;SDS011;6246;50.826;4.712;2024-03-02T03:54:19;14.63;;;10.90;;
12363;SDS011;6246;50.826;4.712;2024-03-02T03:56:45;13.30;;;9.83;;
12363;SDS011;6246;50.826;4.712;2024-03-02T03:59:11;15.30;;;10.80;;
12363;SDS011;6246;50.826;4.712;2024-03-02T04:01:37;13.27;;;10.07;;
12363;SDS011;6246;50.826;4.712;2024-03-02T04:04:03;12.73;;;9.60;;
12363;SDS011;6246;50.826;4.712;2024-03-02T04:06:30;13.77;;;9.60;;
12363;SDS011;6246;50.826;4.712;2024-03-02T04:08:56;12.07;;;9.27;;
12363;SDS011;6246;50.826;4.712;2024-03-02T04:11:22;12.87;;;9.57;;
12363;SDS011;6246;50.826;4.712;2024-03-02T04:13:48;13.07;;;9.20;;
12363;SDS011;6246;50.826;4.712;2024-03-02T04:16:14;13.13;;;9.73;;
12363;SDS011;6246;50.826;4.712;2024-03-02T04:18:40;13.10;;;9.10;;
12363;SDS011;6246;50.826;4.712;2024-03-02T04:21:06;10.93;;;8.80;;
12363;SDS011;6246;50.826;4.712;2024-03-02T04:23:32;11.80;;;8.57;;
12363;SDS011;6246;50.826;4.712;2024-03-02T04:25:58;12.63;;;9.40;;
12363;SDS011;6246;50.826;4.712;2024-03-02T04:28:24;12.17;;;8.97;;
12363;SDS011;6246;50.826;4.712;2024-03-02T04:30:50;11.77;;;8.50;;
12363;SDS011;6246;50.826;4.712;2024-03-02T04:33:16;10.33;;;8.27;;
12363;SDS011;6246;50.826;4.712;2024-03-02T04:35:42;10.83;;;8.57;;
12363;SDS011;6246;50.826;4.712;2024-03-02T04:38:08;9.83;;;7.57;;
12363;SDS011;6246;50.826;4.712;2024-03-02T04:40:34;9.30;;;7.57;;
12363;SDS011;6246;50.826;4.712;2024-03-02T04:43:00;10.50;;;7.60;;
12363;SDS011;6246;50.826;4.712;2024-03-02T04:45:27;9.93;;;7.70;;
12363;SDS011;6246;50.826;4.712;2024-03-02T04:47:53;10.60;;;7.67;;
12363;SDS011;6246;50.826;4.712;2024-03-02T04:50:19;10.30;;;7.30;;
12363;SDS011;6246;50.826;4.712;2024-03-02T04:52:45;9.20;;;7.00;;
12363;SDS011;6246;50.826;4.712;2024-03-02T04:55:11;9.43;;;6.77;;
12363;SDS011;6246;50.826;4.712;2024-03-02T04:57:52;9.03;;;7.10;;
12363;SDS011;6246;50.826;4.712;2024-03-02T05:00:20;8.67;;;6.77;;
12363;SDS011;6246;50.826;4.712;2024-03-02T05:02:46;8.73;;;6.53;;
12363;SDS011;6246;50.826;4.712;2024-03-02T05:05:12;9.10;;;7.03;;
12363;SDS011;6246;50.826;4.712;2024-03-02T05:07:40;9.30;;;6.90;;
12363;SDS011;6246;50.826;4.712;2024-03-02T05:10:07;8.73;;;6.63;;
12363;SDS011;6246;50.826;4.712;2024-03-02T05:12:33;7.97;;;6.17;;
12363;SDS011;6246;50.826;4.712;2024-03-02T05:15:12;9.07;;;6.30;;
12363;SDS011;6246;50.826;4.712;2024-03-02T05:17:38;8.80;;;6.37;;
12363;SDS011;6246;50.826;4.712;2024-03-02T05:20:05;7.73;;;5.93;;
12363;SDS011;6246;50.826;4.712;2024-03-02T05:22:33;8.17;;;6.00;;
12363;SDS011;6246;50.826;4.712;2024-03-02T05:24:59;7.97;;;5.83;;
12363;SDS011;6246;50.826;4.712;2024-03-02T05:27:26;7.37;;;5.90;;
12363;SDS011;6246;50.826;4.712;2024-03-02T05:29:52;6.90;;;5.40;;
12363;SDS011;6246;50.826;4.712;2024-03-02T05:32:18;6.67;;;5.40;;
12363;SDS011;6246;50.826;4.712;2024-03-02T05:34:44;7.00;;;5.17;;
12363;SDS011;6246;50.826;4.712;2024-03-02T05:37:10;7.37;;;5.47;;
12363;SDS011;6246;50.826;4.712;2024-03-02T05:39:36;6.10;;;5.30;;
12363;SDS011;6246;50.826;4.712;2024-03-02T05:42:02;7.03;;;5.50;;
12363;SDS011;6246;50.826;4.712;2024-03-02T05:44:28;5.10;;;4.60;;
12363;SDS011;6246;50.826;4.712;2024-03-02T05:46:54;5.87;;;5.10;;
12363;SDS011;6246;50.826;4.712;2024-03-02T05:49:20;7.00;;;5.07;;
12363;SDS011;6246;50.826;4.712;2024-03-02T05:51:46;6.13;;;4.87;;
12363;SDS011;6246;50.826;4.712;2024-03-02T05:54:12;5.23;;;4.73;;
12363;SDS011;6246;50.826;4.712;2024-03-02T05:56:38;5.07;;;4.37;;
12363;SDS011;6246;50.826;4.712;2024-03-02T05:59:04;6.60;;;4.87;;
12363;SDS011;6246;50.826;4.712;2024-03-02T06:01:37;5.40;;;4.40;;
12363;SDS011;6246;50.826;4.712;2024-03-02T06:04:03;5.63;;;4.80;;
12363;SDS011;6246;50.826;4.712;2024-03-02T06:06:29;5.73;;;4.80;;
12363;SDS011;6246;50.826;4.712;2024-03-02T06:08:57;5.53;;;4.40;;
12363;SDS011;6246;50.826;4.712;2024-03-02T06:11:23;5.00;;;4.40;;
12363;SDS011;6246;50.826;4.712;2024-03-02T06:13:49;4.37;;;3.87;;
12363;SDS011;6246;50.826;4.712;2024-03-02T06:16:15;5.87;;;4.10;;
12363;SDS011;6246;50.826;4.712;2024-03-02T06:18:41;4.70;;;4.20;;
12363;SDS011;6246;50.826;4.712;2024-03-02T06:21:07;4.60;;;4.10;;
12363;SDS011;6246;50.826;4.712;2024-03-02T06:23:33;4.57;;;3.90;;
12363;SDS011;6246;50.826;4.712;2024-03-02T06:26:00;4.90;;;3.80;;
12363;SDS011;6246;50.826;4.712;2024-03-02T06:28:27;4.87;;;4.20;;
12363;SDS011;6246;50.826;4.712;2024-03-02T06:30:54;4.50;;;4.10;;
12363;SDS011;6246;50.826;4.712;2024-03-02T06:33:20;4.67;;;3.90;;
12363;SDS011;6246;50.826;4.712;2024-03-02T06:35:46;4.17;;;3.70;;
12363;SDS011;6246;50.826;4.712;2024-03-02T06:38:12;4.90;;;3.70;;
12363;SDS011;6246;50.826;4.712;2024-03-02T06:40:38;4.80;;;3.67;;
12363;SDS011;6246;50.826;4.712;2024-03-02T06:43:04;3.77;;;3.40;;
12363;SDS011;6246;50.826;4.712;2024-03-02T06:45:30;3.80;;;3.40;;
12363;SDS011;6246;50.826;4.712;2024-03-02T06:47:58;3.43;;;3.13;;
12363;SDS011;6246;50.826;4.712;2024-03-02T06:50:24;4.13;;;3.33;;
12363;SDS011;6246;50.826;4.712;2024-03-02T06:52:50;4.23;;;3.60;;
12363;SDS011;6246;50.826;4.712;2024-03-02T06:55:16;4.20;;;3.70;;
12363;SDS011;6246;50.826;4.712;2024-03-02T06:57:42;4.20;;;3.33;;
12363;SDS011;6246;50.826;4.712;2024-03-02T07:00:08;3.70;;;3.40;;
12363;SDS011;6246;50.826;4.712;2024-03-02T07:02:35;3.50;;;3.17;;
12363;SDS011;6246;50.826;4.712;2024-03-02T07:05:01;3.43;;;3.13;;
12363;SDS011;6246;50.826;4.712;2024-03-02T07:07:27;3.57;;;3.27;;
12363;SDS011;6246;50.826;4.712;2024-03-02T07:09:54;4.17;;;3.20;;
12363;SDS011;6246;50.826;4.712;2024-03-02T07:12:20;3.83;;;3.30;;
12363;SDS011;6246;50.826;4.712;2024-03-02T07:14:46;3.80;;;3.20;;
12363;SDS011;6246;50.826;4.712;2024-03-02T07:17:27;3.53;;;3.23;;
12363;SDS011;6246;50.826;4.712;2024-03-02T07:19:53;3.10;;;2.80;;
12363;SDS011;6246;50.826;4.712;2024-03-02T07:22:19;3.07;;;2.87;;
12363;SDS011;6246;50.826;4.712;2024-03-02T07:24:45;3.83;;;3.23;;
12363;SDS011;6246;50.826;4.712;2024-03-02T07:27:12;3.03;;;2.73;;
12363;SDS011;6246;50.826;4.712;2024-03-02T07:29:38;3.17;;;2.87;;
12363;SDS011;6246;50.826;4.712;2024-03-02T07:32:05;2.70;;;2.47;;
12363;SDS011;6246;50.826;4.712;2024-03-02T07:34:31;3.27;;;2.97;;
12363;SDS011;6246;50.826;4.712;2024-03-02T07:36:57;3.10;;;2.60;;
12363;SDS011;6246;50.826;4.712;2024-03-02T07:39:23;3.20;;;2.90;;
12363;SDS011;6246;50.826;4.712;2024-03-02T07:41:50;3.60;;;2.90;;
12363;SDS011;6246;50.826;4.712;2024-03-02T07:44:16;3.50;;;2.87;;
12363;SDS011;6246;50.826;4.712;2024-03-02T07:46:44;4.30;;;3.23;;
12363;SDS011;6246;50.826;4.712;2024-03-02T07:49:11;3.63;;;3.00;;
12363;SDS011;6246;50.826;4.712;2024-03-02T07:51:39;3.30;;;2.90;;
12363;SDS011;6246;50.826;4.712;2024-03-02T07:54:05;2.97;;;2.70;;
12363;SDS011;6246;50.826;4.712;2024-03-02T07:56:31;3.23;;;2.80;;
12363;SDS011;6246;50.826;4.712;2024-03-02T07:58:57;3.50;;;2.93;;
12363;SDS011;6246;50.826;4.712;2024-03-02T08:01:26;3.00;;;2.70;;
12363;SDS011;6246;50.826;4.712;2024-03-02T08:03:52;3.27;;;2.63;;
12363;SDS011;6246;50.826;4.712;2024-03-02T08:06:20;3.80;;;2.70;;
12363;SDS011;6246;50.826;4.712;2024-03-02T08:08:47;2.97;;;2.40;;
12363;SDS011;6246;50.826;4.712;2024-03-02T08:11:13;7.00;;;2.57;;
12363;SDS011;6246;50.826;4.712;2024-03-02T08:13:38;2.70;;;2.23;;
12363;SDS011;6246;50.826;4.712;2024-03-02T08:16:05;2.50;;;2.30;;
12363;SDS011;6246;50.826;4.712;2024-03-02T08:18:34;5.93;;;2.77;;
12363;SDS011;6246;50.826;4.712;2024-03-02T08:21:00;3.37;;;2.70;;
12363;SDS011;6246;50.826;4.712;2024-03-02T08:23:26;2.97;;;2.30;;
12363;SDS011;6246;50.826;4.712;2024-03-02T08:25:53;2.87;;;2.57;;
12363;SDS011;6246;50.826;4.712;2024-03-02T08:28:19;4.10;;;2.50;;
12363;SDS011;6246;50.826;4.712;2024-03-02T08:30:45;9.87;;;3.33;;
12363;SDS011;6246;50.826;4.712;2024-03-02T08:33:11;7.83;;;2.53;;
12363;SDS011;6246;50.826;4.712;2024-03-02T08:35:37;6.50;;;2.60;;
12363;SDS011;6246;50.826;4.712;2024-03-02T08:38:03;7.47;;;2.53;;
12363;SDS011;6246;50.826;4.712;2024-03-02T08:40:29;8.73;;;3.33;;
12363;SDS011;6246;50.826;4.712;2024-03-02T08:42:55;55.57;;;6.33;;
12363;SDS011;6246;50.826;4.712;2024-03-02T08:45:21;15.63;;;3.00;;
12363;SDS011;6246;50.826;4.712;2024-03-02T08:47:48;14.07;;;2.87;;
12363;SDS011;6246;50.826;4.712;2024-03-02T08:50:14;9.53;;;2.60;;
12363;SDS011;6246;50.826;4.712;2024-03-02T08:52:40;7.97;;;2.70;;
12363;SDS011;6246;50.826;4.712;2024-03-02T08:55:06;11.97;;;2.87;;
12363;SDS011;6246;50.826;4.712;2024-03-02T08:57:32;6.40;;;2.13;;
12363;SDS011;6246;50.826;4.712;2024-03-02T08:59:59;8.80;;;2.27;;
12363;SDS011;6246;50.826;4.712;2024-03-02T09:02:25;7.27;;;2.40;;
12363;SDS011;6246;50.826;4.712;2024-03-02T09:04:51;13.87;;;2.63;;
12363;SDS011;6246;50.826;4.712;2024-03-02T09:07:18;17.13;;;2.63;;
12363;SDS011;6246;50.826;4.712;2024-03-02T09:09:44;5.00;;;2.10;;
12363;SDS011;6246;50.826;4.712;2024-03-02T09:12:10;4.47;;;2.20;;
12363;SDS011;6246;50.826;4.712;2024-03-02T09:14:36;6.50;;;2.50;;
12363;SDS011;6246;50.826;4.712;2024-03-02T09:17:02;5.07;;;2.20;;
12363;SDS011;6246;50.826;4.712;2024-03-02T09:19:28;7.17;;;2.60;;
12363;SDS011;6246;50.826;4.712;2024-03-02T09:21:54;6.70;;;2.43;;
12363;SDS011;6246;50.826;4.712;2024-03-02T09:24:21;3.53;;;2.17;;
12363;SDS011;6246;50.826;4.712;2024-03-02T09:26:47;6.73;;;2.37;;
12363;SDS011;6246;50.826;4.712;2024-03-02T09:29:13;6.20;;;1.87;;
12363;SDS011;6246;50.826;4.712;2024-03-02T09:31:40;6.00;;;1.90;;
12363;SDS011;6246;50.826;4.712;2024-03-02T09:34:06;4.10;;;1.73;;
12363;SDS011;6246;50.826;4.712;2024-03-02T09:36:32;8.10;;;2.40;;
12363;SDS011;6246;50.826;4.712;2024-03-02T09:38:58;6.13;;;1.80;;
12363;SDS011;6246;50.826;4.712;2024-03-02T09:41:24;5.40;;;1.67;;
12363;SDS011;6246;50.826;4.712;2024-03-02T09:43:50;4.67;;;1.70;;
12363;SDS011;6246;50.826;4.712;2024-03-02T09:46:16;6.03;;;1.90;;
12363;SDS011;6246;50.826;4.712;2024-03-02T09:48:43;4.33;;;1.70;;
12363;SDS011;6246;50.826;4.712;2024-03-02T09:51:10;4.37;;;1.60;;
12363;SDS011;6246;50.826;4.712;2024-03-02T09:53:36;3.53;;;1.90;;
12363;SDS011;6246;50.826;4.712;2024-03-02T09:56:03;5.63;;;1.37;;
12363;SDS011;6246;50.826;4.712;2024-03-02T09:58:32;5.50;;;1.50;;
12363;SDS011;6246;50.826;4.712;2024-03-02T10:00:58;6.53;;;1.70;;
12363;SDS011;6246;50.826;4.712;2024-03-02T10:03:24;3.73;;;1.70;;
12363;SDS011;6246;50.826;4.712;2024-03-02T10:05:50;5.10;;;1.80;;
12363;SDS011;6246;50.826;4.712;2024-03-02T10:08:16;5.70;;;1.77;;
12363;SDS011;6246;50.826;4.712;2024-03-02T10:10:43;5.27;;;1.87;;
12363;SDS011;6246;50.826;4.712;2024-03-02T10:13:09;2.33;;;1.27;;
12363;SDS011;6246;50.826;4.712;2024-03-02T10:15:36;3.70;;;1.63;;
12363;SDS011;6246;50.826;4.712;2024-03-02T10:18:03;3.80;;;1.40;;
12363;SDS011;6246;50.826;4.712;2024-03-02T10:20:29;3.27;;;1.60;;
12363;SDS011;6246;50.826;4.712;2024-03-02T10:23:13;3.13;;;1.63;;
12363;SDS011;6246;50.826;4.712;2024-03-02T10:25:39;1.67;;;1.30;;
12363;SDS011;6246;50.826;4.712;2024-03-02T10:28:06;3.67;;;1.77;;
12363;SDS011;6246;50.826;4.712;2024-03-02T10:30:32;2.87;;;1.40;;
12363;SDS011;6246;50.826;4.712;2024-03-02T10:32:58;1.80;;;1.20;;
12363;SDS011;6246;50.826;4.712;2024-03-02T10:35:25;3.63;;;1.43;;
12363;SDS011;6246;50.826;4.712;2024-03-02T10:37:52;3.27;;;1.37;;
12363;SDS011;6246;50.826;4.712;2024-03-02T10:40:18;3.40;;;1.40;;
12363;SDS011;6246;50.826;4.712;2024-03-02T10:42:46;3.70;;;1.53;;
12363;SDS011;6246;50.826;4.712;2024-03-02T10:45:13;2.87;;;1.37;;
12363;SDS011;6246;50.826;4.712;2024-03-02T10:47:41;2.40;;;1.40;;
12363;SDS011;6246;50.826;4.712;2024-03-02T10:50:08;2.87;;;1.53;;
12363;SDS011;6246;50.826;4.712;2024-03-02T10:52:35;2.37;;;1.30;;
12363;SDS011;6246;50.826;4.712;2024-03-02T10:55:01;3.93;;;1.43;;
12363;SDS011;6246;50.826;4.712;2024-03-02T10:57:33;4.73;;;1.73;;
12363;SDS011;6246;50.826;4.712;2024-03-02T11:00:03;2.80;;;1.47;;
12363;SDS011;6246;50.826;4.712;2024-03-02T11:02:30;1.70;;;1.10;;
12363;SDS011;6246;50.826;4.712;2024-03-02T11:04:57;2.10;;;1.33;;
12363;SDS011;6246;50.826;4.712;2024-03-02T11:07:25;1.50;;;1.10;;
12363;SDS011;6246;50.826;4.712;2024-03-02T11:09:59;2.63;;;1.30;;
12363;SDS011;6246;50.826;4.712;2024-03-02T11:12:35;5.13;;;1.53;;
12363;SDS011;6246;50.826;4.712;2024-03-02T11:15:04;5.23;;;1.60;;
12363;SDS011;6246;50.826;4.712;2024-03-02T11:17:33;3.50;;;1.50;;
12363;SDS011;6246;50.826;4.712;2024-03-02T11:19:59;7.73;;;1.80;;
12363;SDS011;6246;50.826;4.712;2024-03-02T11:22:26;8.77;;;1.20;;
12363;SDS011;6246;50.826;4.712;2024-03-02T11:24:52;3.83;;;1.53;;
12363;SDS011;6246;50.826;4.712;2024-03-02T11:32:55;2.00;;;1.10;;
12363;SDS011;6246;50.826;4.712;2024-03-02T11:35:21;3.07;;;1.37;;
12363;SDS011;6246;50.826;4.712;2024-03-02T11:37:47;2.57;;;1.20;;
12363;SDS011;6246;50.826;4.712;2024-03-02T11:40:13;6.67;;;1.83;;
12363;SDS011;6246;50.826;4.712;2024-03-02T11:42:39;4.83;;;1.60;;
12363;SDS011;6246;50.826;4.712;2024-03-02T11:45:06;4.50;;;1.40;;
12363;SDS011;6246;50.826;4.712;2024-03-02T11:47:34;4.50;;;1.80;;
12363;SDS011;6246;50.826;4.712;2024-03-02T11:50:00;3.70;;;1.20;;
12363;SDS011;6246;50.826;4.712;2024-03-02T11:52:26;6.17;;;2.07;;
12363;SDS011;6246;50.826;4.712;2024-03-02T11:54:52;6.27;;;2.00;;
12363;SDS011;6246;50.826;4.712;2024-03-02T11:57:19;4.57;;;1.57;;
12363;SDS011;6246;50.826;4.712;2024-03-02T11:59:47;3.47;;;1.23;;
12363;SDS011;6246;50.826;4.712;2024-03-02T12:02:18;4.20;;;1.40;;
12363;SDS011;6246;50.826;4.712;2024-03-02T12:04:44;6.03;;;1.93;;
12363;SDS011;6246;50.826;4.712;2024-03-02T12:07:11;7.83;;;1.80;;
12363;SDS011;6246;50.826;4.712;2024-03-02T12:09:40;10.00;;;2.00;;
12363;SDS011;6246;50.826;4.712;2024-03-02T12:12:09;7.20;;;2.00;;
12363;SDS011;6246;50.826;4.712;2024-03-02T12:14:36;11.50;;;2.50;;
12363;SDS011;6246;50.826;4.712;2024-03-02T12:17:02;5.03;;;1.73;;
12363;SDS011;6246;50.826;4.712;2024-03-02T12:19:29;8.47;;;2.20;;
12363;SDS011;6246;50.826;4.712;2024-03-02T12:22:01;6.97;;;1.90;;
12363;SDS011;6246;50.826;4.712;2024-03-02T12:24:28;6.57;;;2.13;;
12363;SDS011;6246;50.826;4.712;2024-03-02T12:26:54;6.10;;;1.80;;
12363;SDS011;6246;50.826;4.712;2024-03-02T12:29:20;6.30;;;1.50;;
12363;SDS011;6246;50.826;4.712;2024-03-02T12:31:50;8.87;;;2.07;;
12363;SDS011;6246;50.826;4.712;2024-03-02T12:34:21;6.10;;;1.60;;
12363;SDS011;6246;50.826;4.712;2024-03-02T12:36:48;6.60;;;2.00;;
12363;SDS011;6246;50.826;4.712;2024-03-02T12:39:17;3.73;;;1.83;;
12363;SDS011;6246;50.826;4.712;2024-03-02T12:41:43;2.63;;;1.50;;
12363;SDS011;6246;50.826;4.712;2024-03-02T12:44:09;7.77;;;2.13;;
12363;SDS011;6246;50.826;4.712;2024-03-02T12:46:35;4.60;;;1.33;;
12363;SDS011;6246;50.826;4.712;2024-03-02T12:49:07;5.33;;;1.23;;
12363;SDS011;6246;50.826;4.712;2024-03-02T12:51:34;3.03;;;1.40;;
12363;SDS011;6246;50.826;4.712;2024-03-02T12:54:01;4.73;;;1.30;;
12363;SDS011;6246;50.826;4.712;2024-03-02T12:56:27;4.40;;;1.50;;
12363;SDS011;6246;50.826;4.712;2024-03-02T12:58:53;7.70;;;1.97;;
12363;SDS011;6246;50.826;4.712;2024-03-02T13:01:19;5.37;;;1.87;;
12363;SDS011;6246;50.826;4.712;2024-03-02T13:03:48;5.27;;;2.03;;
12363;SDS011;6246;50.826;4.712;2024-03-02T13:06:16;6.63;;;1.70;;
12363;SDS011;6246;50.826;4.712;2024-03-02T13:08:42;10.40;;;1.93;;
12363;SDS011;6246;50.826;4.712;2024-03-02T13:11:08;4.33;;;1.80;;
12363;SDS011;6246;50.826;4.712;2024-03-02T13:13:34;4.53;;;1.60;;
12363;SDS011;6246;50.826;4.712;2024-03-02T13:16:00;3.10;;;1.67;;
12363;SDS011;6246;50.826;4.712;2024-03-02T13:18:28;7.07;;;2.07;;
12363;SDS011;6246;50.826;4.712;2024-03-02T13:20:54;6.67;;;2.30;;
12363;SDS011;6246;50.826;4.712;2024-03-02T13:23:21;6.93;;;1.80;;
12363;SDS011;6246;50.826;4.712;2024-03-02T13:25:47;7.00;;;1.43;;
12363;SDS011;6246;50.826;4.712;2024-03-02T13:28:13;5.60;;;1.37;;
12363;SDS011;6246;50.826;4.712;2024-03-02T13:30:39;3.37;;;1.50;;
12363;SDS011;6246;50.826;4.712;2024-03-02T13:33:05;3.70;;;1.20;;
12363;SDS011;6246;50.826;4.712;2024-03-02T13:35:31;4.20;;;1.73;;
12363;SDS011;6246;50.826;4.712;2024-03-02T13:37:57;4.90;;;1.37;;
12363;SDS011;6246;50.826;4.712;2024-03-02T13:40:23;3.17;;;1.37;;
12363;SDS011;6246;50.826;4.712;2024-03-02T13:42:49;3.43;;;1.43;;
12363;SDS011;6246;50.826;4.712;2024-03-02T13:45:17;3.27;;;1.40;;
12363;SDS011;6246;50.826;4.712;2024-03-02T13:47:43;2.37;;;1.57;;
12363;SDS011;6246;50.826;4.712;2024-03-02T13:50:09;4.43;;;1.23;;
12363;SDS011;6246;50.826;4.712;2024-03-02T13:52:35;2.17;;;1.10;;
12363;SDS011;6246;50.826;4.712;2024-03-02T13:55:01;4.83;;;1.53;;
12363;SDS011;6246;50.826;4.712;2024-03-02T13:57:27;3.80;;;1.43;;
12363;SDS011;6246;50.826;4.712;2024-03-02T13:59:54;1.87;;;1.30;;
12363;SDS011;6246;50.826;4.712;2024-03-02T14:02:20;6.23;;;2.20;;
12363;SDS011;6246;50.826;4.712;2024-03-02T14:04:46;4.17;;;1.57;;
12363;SDS011;6246;50.826;4.712;2024-03-02T14:07:16;4.50;;;1.73;;
12363;SDS011;6246;50.826;4.712;2024-03-02T14:09:43;5.57;;;1.57;;
12363;SDS011;6246;50.826;4.712;2024-03-02T14:12:09;5.27;;;2.00;;
12363;SDS011;6246;50.826;4.712;2024-03-02T14:14:35;3.37;;;1.10;;
12363;SDS011;6246;50.826;4.712;2024-03-02T14:17:01;3.63;;;1.20;;
12363;SDS011;6246;50.826;4.712;2024-03-02T14:19:31;2.37;;;0.93;;
12363;SDS011;6246;50.826;4.712;2024-03-02T14:21:57;2.60;;;1.10;;
12363;SDS011;6246;50.826;4.712;2024-03-02T14:24:23;4.07;;;1.63;;
12363;SDS011;6246;50.826;4.712;2024-03-02T14:26:51;2.77;;;0.90;;
12363;SDS011;6246;50.826;4.712;2024-03-02T14:29:18;2.63;;;1.10;;
12363;SDS011;6246;50.826;4.712;2024-03-02T14:31:44;2.27;;;1.00;;
12363;SDS011;6246;50.826;4.712;2024-03-02T14:34:13;5.23;;;1.23;;
12363;SDS011;6246;50.826;4.712;2024-03-02T14:36:39;3.10;;;1.20;;
12363;SDS011;6246;50.826;4.712;2024-03-02T14:39:05;2.97;;;1.10;;
12363;SDS011;6246;50.826;4.712;2024-03-02T14:41:35;2.17;;;1.17;;
12363;SDS011;6246;50.826;4.712;2024-03-02T14:44:01;1.30;;;0.80;;
12363;SDS011;6246;50.826;4.712;2024-03-02T14:46:27;2.47;;;1.10;;
12363;SDS011;6246;50.826;4.712;2024-03-02T14:48:53;4.47;;;1.20;;
12363;SDS011;6246;50.826;4.712;2024-03-02T14:51:19;2.40;;;1.30;;
12363;SDS011;6246;50.826;4.712;2024-03-02T14:53:45;1.77;;;1.10;;
12363;SDS011;6246;50.826;4.712;2024-03-02T14:56:11;10.53;;;2.23;;
12363;SDS011;6246;50.826;4.712;2024-03-02T14:58:40;3.57;;;1.10;;
12363;SDS011;6246;50.826;4.712;2024-03-02T15:01:06;4.43;;;1.40;;